Hlavní strana
METAR-TAF:

METAR-TAF

Letiště :

Letiště Longyearbyen

Longyearbyen, Norsko

zeměpisná šířka: 78-15N, zeměpisná délka: 015-28E, výška: 2 m

Aktuální stav počasí

Zpráva byla vytvořena před 26 minutami, v 06:20 UTC
Jihovýchodní vítr 8 kt
Teplota -9°C
Vlhkost vzduchu 67%
Tlak 1017 hPa
Viditelnost 10 km a více
Oblačno až skoro zataženo ve výšce 4000 ft
slabé sněžení

METAR: ENSB 240620Z 14008KT 9999 -SN BKN040 M09/M14 Q1017 RMK WIND 1400FT 14008KT

Čas: 07:46 (06:46 UTC)

Předpověď počasí

Předpověď platná od 24 v 06 UTC do 25 v 06 UTC
Jihovýchodní vítr 10 kt
Viditelnost 10 km a více
Skoro jasno ve výšce 3000 ft
Oblačno až skoro zataženo ve výšce 4000 ft
Změna
od 24 v 20 UTC do 24 v 22 UTC
Jihovýchodní vítr 20 kt

TAF: ENSB 2406/2506 13010KT 9999 FEW030 BKN040 BECMG 2420/2422 13020KT

Stav a předpovědi počasí z více než 4 000 letišť (zprávy METAR a TAF).

Červené a žluté tečky na mapě představují dostupné meteorologické stanice.

Když kurzor umístíte na tečku, zobrazí se název stanice.

Pak kliknutím zobrazíte stav a předpověď počasí.

Chcete-li změnit mapu, kliknutím na zelené tlačítko se znaménkem +mapu přiblížíte, kliknutím na zelené tlačítko se znaménkem – mapu oddálíte a kliknutím na zelené šipky přejdete na sousední mapy.


METAR-TAF: